Time;durP1;ratioP1;P1;durP2;ratioP2;P2;SDS_P1;SDS_P2;PMS_P1;PMS_P2;Temp;Humidity;BMP_temperature;BMP_pressure;BME280_temperature;BME280_humidity;BME280_pressure;Samples;Min_cycle;Max_cycle;Signal;HPM_P1;HPM_P2
2022/04/01 00:00:00;;;;;;;20.83;11.03;;;4.90;99.90;;;;;;5027389;28;20446;-75
2022/04/01 00:02:25;;;;;;;20.97;11.87;;;4.80;99.90;;;;;;5028488;28;20508;-75
2022/04/01 00:04:51;;;;;;;16.67;9.93;;;4.80;99.90;;;;;;5027132;28;20191;-75
2022/04/01 00:07:18;;;;;;;18.93;10.93;;;4.80;99.90;;;;;;5028281;28;20266;-76
2022/04/01 00:09:43;;;;;;;20.15;10.75;;;4.80;99.90;;;;;;5028528;28;20190;-76
2022/04/01 00:12:10;;;;;;;21.70;11.50;;;4.90;99.90;;;;;;5028313;28;20249;-76
2022/04/01 00:14:36;;;;;;;19.30;11.57;;;4.90;99.90;;;;;;5028364;28;20177;-75
2022/04/01 00:17:02;;;;;;;19.87;11.67;;;5.00;99.90;;;;;;5028347;28;21022;-74
2022/04/01 00:19:28;;;;;;;20.77;11.97;;;5.00;99.90;;;;;;5028532;28;20417;-75
2022/04/01 00:21:55;;;;;;;27.10;10.63;;;5.00;99.90;;;;;;5028584;28;20504;-75
2022/04/01 00:24:21;;;;;;;19.47;10.67;;;5.00;99.90;;;;;;5026885;28;20195;-74
2022/04/01 00:26:46;;;;;;;19.07;10.67;;;4.90;99.90;;;;;;5026978;28;20561;-75
2022/04/01 00:29:16;;;;;;;16.67;9.27;;;4.90;99.90;;;;;;5026550;28;20565;-76
2022/04/01 00:31:43;;;;;;;18.47;10.50;;;4.80;99.90;;;;;;5028101;28;20191;-75
2022/04/01 00:34:17;;;;;;;18.00;9.50;;;4.80;99.90;;;;;;5030009;28;20482;-74
2022/04/01 00:36:48;;;;;;;10.13;7.03;;;4.80;99.90;;;;;;5031817;28;20442;-74
2022/04/01 00:39:15;;;;;;;14.53;7.73;;;4.80;99.90;;;;;;5031752;28;20434;-75
2022/04/01 00:41:44;;;;;;;11.73;7.80;;;4.80;99.90;;;;;;5046952;28;20431;-75
2022/04/01 00:44:25;;;;;;;13.17;8.37;;;4.80;99.90;;;;;;5031625;28;20437;-75
2022/04/01 00:46:53;;;;;;;18.67;10.10;;;4.80;99.90;;;;;;5031548;28;20864;-76
2022/04/01 00:49:20;;;;;;;16.10;9.00;;;4.80;99.90;;;;;;5031420;28;20468;-75
2022/04/01 00:51:53;;;;;;;16.57;9.23;;;4.80;99.90;;;;;;5029966;28;20828;-75
2022/04/01 00:54:20;;;;;;;17.83;8.30;;;4.80;99.90;;;;;;5029977;28;20488;-75
2022/04/01 00:56:45;;;;;;;11.17;7.87;;;4.90;99.90;;;;;;5046761;28;20518;-74
2022/04/01 00:59:12;;;;;;;12.53;8.33;;;4.80;99.90;;;;;;5031723;28;20519;-76
2022/04/01 01:01:45;;;;;;;16.60;9.48;;;4.80;99.90;;;;;;5031393;28;20205;-74
2022/04/01 01:04:14;;;;;;;13.85;8.95;;;4.80;99.90;;;;;;5031494;28;20541;-74
2022/04/01 01:06:43;;;;;;;20.90;9.90;;;4.80;99.90;;;;;;5046215;28;20740;-74
2022/04/01 01:09:09;;;;;;;18.25;9.52;;;4.70;99.90;;;;;;5031233;28;20472;-74
2022/04/01 01:11:35;;;;;;;10.50;7.53;;;4.70;99.90;;;;;;5029763;28;20562;-74
2022/04/01 01:14:05;;;;;;;9.57;6.73;;;4.80;99.90;;;;;;5031154;28;20237;-74
2022/04/01 01:16:31;;;;;;;10.30;6.87;;;4.60;99.90;;;;;;5031184;28;20422;-74
2022/04/01 01:19:13;;;;;;;12.90;6.90;;;4.60;99.90;;;;;;5031268;28;20509;-74
2022/04/01 01:21:40;;;;;;;9.13;6.10;;;4.50;99.90;;;;;;5030841;28;20483;-74
2022/04/01 01:24:11;;;;;;;19.73;5.83;;;4.40;99.90;;;;;;5030973;28;20429;-74
2022/04/01 01:26:38;;;;;;;9.38;6.95;;;4.50;99.90;;;;;;5031372;28;20436;-74
2022/04/01 01:29:06;;;;;;;11.88;7.82;;;4.40;99.90;;;;;;5045730;28;20212;-74
2022/04/01 01:31:33;;;;;;;13.05;7.88;;;4.50;99.90;;;;;;5045812;28;20275;-74
2022/04/01 01:33:59;;;;;;;12.52;7.38;;;4.50;99.90;;;;;;5029375;28;20253;-74
2022/04/01 01:36:26;;;;;;;13.43;7.45;;;4.50;99.90;;;;;;5030795;28;20228;-73
2022/04/01 01:38:53;;;;;;;17.67;9.07;;;4.40;99.90;;;;;;5045732;28;20759;-73
2022/04/01 01:41:19;;;;;;;13.63;8.50;;;4.50;99.90;;;;;;5030655;28;20411;-74
2022/04/01 01:43:45;;;;;;;14.47;8.50;;;4.50;99.90;;;;;;5030428;28;20436;-73
2022/04/01 01:46:11;;;;;;;12.30;7.87;;;4.50;99.90;;;;;;5028878;28;20433;-74
2022/04/01 01:48:37;;;;;;;13.17;7.80;;;4.50;99.90;;;;;;5030393;28;20473;-73
2022/04/01 01:56:31;;;;;;;10.10;6.93;;;4.50;99.90;;;;;;5030595;28;20449;-75
2022/04/01 01:58:57;;;;;;;15.50;6.93;;;4.50;99.90;;;;;;5030640;28;20872;-75
2022/04/01 02:01:23;;;;;;;15.27;7.22;;;4.50;99.90;;;;;;5030316;28;20208;-75
2022/04/01 02:03:49;;;;;;;13.47;7.80;;;4.50;99.90;;;;;;5045450;28;20239;-75
2022/04/01 02:06:15;;;;;;;12.00;7.53;;;4.50;99.90;;;;;;5028723;28;20809;-75
2022/04/01 02:08:41;;;;;;;15.17;9.67;;;4.50;99.90;;;;;;5029995;28;20324;-75
2022/04/01 02:11:07;;;;;;;16.13;9.13;;;4.40;99.90;;;;;;5045096;28;20417;-75
2022/04/01 02:13:34;;;;;;;17.00;8.90;;;4.50;99.90;;;;;;5045164;28;20446;-74
2022/04/01 02:16:01;;;;;;;11.63;8.23;;;4.50;99.90;;;;;;5029939;28;20411;-74
2022/04/01 02:18:27;;;;;;;13.93;8.97;;;4.60;99.90;;;;;;5029979;28;20430;-74
2022/04/01 02:20:53;;;;;;;17.80;9.20;;;4.50;99.90;;;;;;5044927;28;20429;-74
2022/04/01 02:23:19;;;;;;;15.17;9.23;;;4.50;99.90;;;;;;5029812;28;20438;-74
2022/04/01 02:25:44;;;;;;;16.00;9.77;;;4.50;99.90;;;;;;5029614;28;20429;-75
2022/04/01 02:28:12;;;;;;;18.90;9.77;;;4.50;99.90;;;;;;5029765;28;20273;-74
2022/04/01 02:30:38;;;;;;;16.67;9.97;;;4.50;99.90;;;;;;5044787;28;20190;-74
2022/04/01 02:33:06;;;;;;;18.40;9.73;;;4.50;99.90;;;;;;5029443;28;20918;-74
2022/04/01 02:35:32;;;;;;;21.23;9.93;;;4.60;99.90;;;;;;5028323;28;20526;-76
2022/04/01 02:37:58;;;;;;;17.02;9.98;;;4.60;99.90;;;;;;5029452;28;20210;-76
2022/04/01 02:40:24;;;;;;;14.60;9.77;;;4.60;99.90;;;;;;5029557;28;20183;-76
2022/04/01 02:42:53;;;;;;;12.57;8.97;;;4.60;99.90;;;;;;5029491;28;20969;-74
2022/04/01 02:45:21;;;;;;;20.43;10.77;;;4.60;99.90;;;;;;5029471;28;20246;-77
2022/04/01 02:47:47;;;;;;;20.47;10.73;;;4.60;99.90;;;;;;5029559;28;20463;-75
2022/04/01 02:50:13;;;;;;;15.67;9.90;;;4.60;99.90;;;;;;5044440;28;20492;-74
2022/04/01 02:52:39;;;;;;;14.27;9.73;;;4.60;99.90;;;;;;5029297;28;20199;-74
2022/04/01 02:55:05;;;;;;;14.00;9.53;;;4.70;99.90;;;;;;5028833;28;20488;-74
2022/04/01 02:57:31;;;;;;;17.43;10.40;;;4.50;99.90;;;;;;5044575;28;20574;-74
2022/04/01 02:59:57;;;;;;;28.10;11.70;;;4.50;99.90;;;;;;5027987;28;20433;-74
2022/04/01 03:02:22;;;;;;;22.47;11.80;;;4.50;99.90;;;;;;5029168;28;20461;-74
2022/04/01 03:04:48;;;;;;;17.80;10.87;;;4.60;99.90;;;;;;5027818;28;20215;-74
2022/04/01 03:07:14;;;;;;;22.33;10.80;;;4.60;99.90;;;;;;5027642;28;20263;-73
2022/04/01 03:09:40;;;;;;;19.90;11.13;;;4.60;99.90;;;;;;5044242;28;20937;-74
2022/04/01 03:12:07;;;;;;;23.23;11.77;;;4.60;99.90;;;;;;5027615;28;20192;-75
2022/04/01 03:14:33;;;;;;;16.57;11.00;;;4.60;99.90;;;;;;5027789;28;20207;-74
2022/04/01 03:16:59;;;;;;;18.40;11.20;;;4.60;99.90;;;;;;5029344;28;20450;-75
2022/04/01 03:19:25;;;;;;;18.67;10.70;;;4.60;99.90;;;;;;5029634;28;20455;-73
2022/04/01 03:21:50;;;;;;;18.47;10.23;;;4.60;99.90;;;;;;5029420;28;20239;-74
2022/04/01 03:24:16;;;;;;;19.70;10.60;;;4.60;99.90;;;;;;4995769;28;20463;-74
2022/04/01 03:26:42;;;;;;;16.70;11.00;;;4.70;99.90;;;;;;5030812;28;20212;-75
2022/04/01 03:29:10;;;;;;;29.50;12.13;;;4.60;99.90;;;;;;5029921;28;21018;-73
2022/04/01 03:31:37;;;;;;;21.77;11.00;;;4.60;99.90;;;;;;5028230;28;20465;-73
2022/04/01 03:34:04;;;;;;;19.30;10.53;;;4.60;99.90;;;;;;5043359;28;20454;-73
2022/04/01 03:36:30;;;;;;;18.30;10.80;;;4.50;99.90;;;;;;5054666;28;20484;-73
2022/04/01 03:38:56;;;;;;;24.40;11.60;;;4.50;99.90;;;;;;5070759;28;20454;-73
2022/04/01 03:41:22;;;;;;;18.03;11.30;;;4.60;99.90;;;;;;5033623;28;20200;-74
2022/04/01 03:43:48;;;;;;;25.10;12.50;;;4.50;99.90;;;;;;5028837;28;20451;-74
2022/04/01 03:46:18;;;;;;;19.67;11.73;;;4.50;99.90;;;;;;5029371;28;20426;-74
2022/04/01 03:48:47;;;;;;;15.80;11.07;;;4.50;99.90;;;;;;5044523;28;20466;-73
2022/04/01 03:51:22;;;;;;;16.43;10.17;;;4.50;99.90;;;;;;5028734;28;20418;-74
2022/04/01 03:54:01;;;;;;;15.47;9.83;;;4.40;99.90;;;;;;5028693;28;20442;-75
2022/04/01 03:56:36;;;;;;;16.30;9.67;;;4.40;99.90;;;;;;5027091;28;20426;-74
2022/04/01 03:59:06;;;;;;;19.90;9.80;;;4.30;99.90;;;;;;5028582;28;20520;-74
2022/04/01 04:01:35;;;;;;;14.70;9.80;;;4.40;99.90;;;;;;5043638;28;20419;-73
2022/04/01 04:04:03;;;;;;;19.90;9.83;;;4.40;99.90;;;;;;5026982;28;20433;-74
2022/04/01 04:06:28;;;;;;;14.95;10.48;;;4.40;99.90;;;;;;5028367;28;20427;-74
2022/04/01 04:08:57;;;;;;;23.40;10.10;;;4.30;99.90;;;;;;5046741;28;20638;-73
2022/04/01 04:11:29;;;;;;;25.33;11.53;;;4.40;99.90;;;;;;5030923;28;20181;-73
2022/04/01 04:13:57;;;;;;;20.27;10.10;;;4.30;99.90;;;;;;5030760;28;20904;-73
2022/04/01 04:16:25;;;;;;;16.13;11.20;;;4.20;99.90;;;;;;5047479;28;20844;-73
2022/04/01 04:19:09;;;;;;;16.80;10.00;;;4.20;99.90;;;;;;5032475;28;20495;-74
2022/04/01 04:21:52;;;;;;;18.37;10.07;;;4.30;99.90;;;;;;5032057;28;20422;-72
2022/04/01 04:24:27;;;;;;;17.90;10.82;;;4.20;99.90;;;;;;5030781;28;20414;-72
2022/04/01 04:26:55;;;;;;;19.87;11.80;;;4.20;99.90;;;;;;5031011;28;20672;-73
2022/04/01 04:29:22;;;;;;;20.97;10.80;;;4.20;99.90;;;;;;5031259;28;20604;-73
2022/04/01 04:31:57;;;;;;;19.88;10.85;;;4.20;99.90;;;;;;5046351;28;20537;-73
2022/04/01 04:34:29;;;;;;;20.57;11.70;;;4.20;99.90;;;;;;5031383;28;20191;-72
2022/04/01 04:36:57;;;;;;;26.43;12.57;;;4.20;99.90;;;;;;5031344;28;20403;-73
2022/04/01 04:39:43;;;;;;;20.00;10.00;;;4.30;99.90;;;;;;5031091;28;20417;-72
2022/04/01 04:42:09;;;;;;;20.17;10.48;;;4.30;99.90;;;;;;5031096;28;20430;-72
2022/04/01 04:44:36;;;;;;;14.20;10.02;;;4.20;99.90;;;;;;5029281;28;20274;-73
2022/04/01 04:47:07;;;;;;;21.77;13.05;;;4.20;99.90;;;;;;5030900;28;20561;-73
2022/04/01 04:49:34;;;;;;;22.17;11.97;;;4.20;99.90;;;;;;5030399;28;20220;-73
2022/04/01 04:52:00;;;;;;;16.70;10.60;;;4.10;99.90;;;;;;5030188;28;20453;-73
2022/04/01 04:54:26;;;;;;;15.23;11.13;;;4.10;99.90;;;;;;5030391;28;20448;-73
2022/04/01 04:56:55;;;;;;;27.43;11.27;;;4.20;99.90;;;;;;5030414;28;20964;-73
2022/04/01 04:59:22;;;;;;;30.20;12.93;;;4.10;99.90;;;;;;5030403;28;20197;-73
2022/04/01 05:02:10;;;;;;;17.03;9.93;;;4.10;99.90;;;;;;5028475;28;20568;-73
2022/04/01 05:05:22;;;;;;;17.20;10.73;;;4.10;99.90;;;;;;5030063;28;20418;-73
2022/04/01 05:08:10;;;;;;;19.83;11.83;;;4.00;99.90;;;;;;5029592;28;20474;-73
2022/04/01 05:10:42;;;;;;;26.13;11.93;;;4.00;99.90;;;;;;5029886;28;20419;-73
2022/04/01 05:13:21;;;;;;;19.67;9.63;;;3.90;99.90;;;;;;5030030;28;20234;-73
2022/04/01 05:15:53;;;;;;;12.70;9.30;;;3.90;99.90;;;;;;5030063;28;20442;-73
2022/04/01 05:18:29;;;;;;;11.43;9.25;;;3.90;99.90;;;;;;5029138;28;20433;-73
2022/04/01 05:20:58;;;;;;;15.15;9.77;;;3.90;99.90;;;;;;5029803;28;20190;-73
2022/04/01 05:23:38;;;;;;;11.50;8.20;;;3.90;99.90;;;;;;5029592;28;20789;-73
2022/04/01 05:26:14;;;;;;;15.38;9.32;;;3.80;99.90;;;;;;5029661;28;20229;-73
2022/04/01 05:28:48;;;;;;;13.40;8.70;;;3.90;99.90;;;;;;5044490;28;20235;-73
2022/04/01 05:31:23;;;;;;;11.88;8.10;;;3.80;99.90;;;;;;5029542;28;20563;-73
2022/04/01 05:34:00;;;;;;;11.63;7.00;;;3.80;99.90;;;;;;5029439;28;20224;-73
2022/04/01 05:36:27;;;;;;;11.47;8.60;;;3.80;99.90;;;;;;5029613;28;20193;-73
2022/04/01 05:38:54;;;;;;;17.08;9.00;;;3.70;99.90;;;;;;5029428;28;21246;-73
2022/04/01 05:41:20;;;;;;;15.57;8.97;;;3.70;99.90;;;;;;5029363;28;20194;-73
2022/04/01 05:43:47;;;;;;;9.67;8.23;;;3.70;99.90;;;;;;5029242;28;20437;-73
2022/04/01 05:46:15;;;;;;;9.52;6.93;;;3.70;99.90;;;;;;5044634;28;20794;-73
2022/04/01 05:48:41;;;;;;;17.70;8.48;;;3.70;99.90;;;;;;5027629;28;20251;-73
2022/04/01 05:51:07;;;;;;;13.00;8.83;;;3.70;99.90;;;;;;5044349;28;20188;-73
2022/04/01 05:53:34;;;;;;;12.07;7.97;;;3.60;99.90;;;;;;5029041;28;20439;-73
2022/04/01 05:56:01;;;;;;;15.18;9.15;;;3.60;99.90;;;;;;5029092;28;20172;-73
2022/04/01 05:58:27;;;;;;;8.77;6.87;;;3.60;99.90;;;;;;5029215;28;20260;-73
2022/04/01 06:01:01;;;;;;;10.07;6.73;;;3.70;99.90;;;;;;5044373;28;21101;-73
2022/04/01 06:04:08;;;;;;;10.27;7.00;;;3.60;99.90;;;;;;5044421;28;20218;-73
2022/04/01 06:06:41;;;;;;;7.87;6.57;;;3.60;99.90;;;;;;5029565;28;20428;-72
2022/04/01 06:09:22;;;;;;;10.50;6.60;;;3.60;99.90;;;;;;5044448;28;20471;-72
2022/04/01 06:12:18;;;;;;;15.48;7.50;;;3.60;99.90;;;;;;5029351;28;20488;-72
2022/04/01 06:15:18;;;;;;;13.17;9.10;;;3.60;99.90;;;;;;5029425;28;20179;-72
2022/04/01 06:17:55;;;;;;;15.27;8.02;;;3.60;99.90;;;;;;5027670;28;20796;-73
2022/04/01 06:20:25;;;;;;;11.65;8.35;;;3.60;99.90;;;;;;5029443;28;20502;-72
2022/04/01 06:22:59;;;;;;;9.93;6.70;;;3.60;99.90;;;;;;5029135;28;20556;-72
2022/04/01 06:25:30;;;;;;;8.88;6.95;;;3.70;99.90;;;;;;5029345;28;20182;-72
2022/04/01 06:28:16;;;;;;;8.93;7.00;;;3.70;99.90;;;;;;5043541;28;20711;-72
2022/04/01 06:30:44;;;;;;;5.87;5.27;;;3.70;99.90;;;;;;5027878;28;20499;-72
2022/04/01 06:33:15;;;;;;;8.57;6.75;;;3.60;99.90;;;;;;5043292;28;20475;-73
2022/04/01 06:36:03;;;;;;;10.85;6.97;;;3.60;99.90;;;;;;5028377;28;20591;-72
2022/04/01 06:38:34;;;;;;;8.88;6.90;;;3.50;99.90;;;;;;5026683;28;20199;-73
2022/04/01 06:41:04;;;;;;;7.07;6.13;;;3.50;99.90;;;;;;5028564;28;20639;-72
2022/04/01 06:43:30;;;;;;;6.22;5.15;;;3.50;99.90;;;;;;5028043;28;20208;-73
2022/04/01 06:45:56;;;;;;;6.50;5.57;;;3.50;99.90;;;;;;5028210;28;20183;-73
2022/04/01 06:48:21;;;;;;;6.20;5.15;;;3.40;99.90;;;;;;5028294;28;20206;-72
2022/04/01 06:50:49;;;;;;;5.77;5.20;;;3.40;99.90;;;;;;5028655;28;20226;-72
2022/04/01 06:53:19;;;;;;;5.00;4.50;;;3.50;99.90;;;;;;5028663;28;20261;-72
2022/04/01 06:55:47;;;;;;;6.72;5.05;;;3.50;99.90;;;;;;5028596;28;20264;-72
2022/04/01 06:58:13;;;;;;;4.95;3.90;;;3.40;99.90;;;;;;5010857;28;20211;-72
2022/04/01 07:00:43;;;;;;;7.70;4.40;;;3.30;99.90;;;;;;5028801;28;20179;-72
2022/04/01 07:03:10;;;;;;;5.72;4.72;;;3.30;99.90;;;;;;5028575;28;20440;-72
2022/04/01 07:05:36;;;;;;;7.68;5.80;;;3.40;99.90;;;;;;5028509;28;20244;-72
2022/04/01 07:08:03;;;;;;;6.15;5.57;;;3.40;99.90;;;;;;5028328;28;20226;-73
2022/04/01 07:10:29;;;;;;;4.70;4.30;;;3.40;99.90;;;;;;5043671;28;20193;-72
2022/04/01 07:12:55;;;;;;;8.80;5.97;;;3.40;99.90;;;;;;5028436;28;20197;-72
2022/04/01 07:15:21;;;;;;;7.77;5.53;;;3.40;99.90;;;;;;5028525;28;20254;-72
2022/04/01 07:17:47;;;;;;;9.32;6.70;;;3.40;99.90;;;;;;5028503;28;20998;-72
2022/04/01 07:20:13;;;;;;;7.17;5.63;;;3.40;99.90;;;;;;5043788;28;20306;-72
2022/04/01 07:22:40;;;;;;;7.90;5.77;;;3.30;99.90;;;;;;5043342;28;20209;-72
2022/04/01 07:25:08;;;;;;;5.97;5.13;;;3.40;99.90;;;;;;5028297;28;21235;-72
2022/04/01 07:27:35;;;;;;;13.80;6.43;;;3.30;99.90;;;;;;5026520;28;20203;-72
2022/04/01 07:30:01;;;;;;;7.38;5.55;;;3.30;99.90;;;;;;5028147;28;20420;-72
2022/04/01 07:32:32;;;;;;;5.80;4.75;;;3.30;99.90;;;;;;5028933;28;20218;-72
2022/04/01 07:35:00;;;;;;;8.30;5.50;;;3.20;99.90;;;;;;5043928;28;20178;-72
2022/04/01 07:37:27;;;;;;;7.43;5.70;;;3.20;99.90;;;;;;5029431;28;20265;-73
2022/04/01 07:39:54;;;;;;;7.57;5.85;;;3.30;99.90;;;;;;5029831;28;20413;-72
2022/04/01 07:42:21;;;;;;;9.07;6.30;;;3.20;99.90;;;;;;5053363;28;20222;-71
2022/04/01 07:44:50;;;;;;;9.00;5.47;;;3.30;99.90;;;;;;5054317;28;20162;-71
2022/04/01 07:47:18;;;;;;;8.05;5.93;;;3.20;99.90;;;;;;5054649;28;20254;-71
2022/04/01 07:49:45;;;;;;;9.03;6.73;;;3.30;99.90;;;;;;5054785;28;20212;-71
2022/04/01 07:52:13;;;;;;;8.18;6.38;;;3.20;99.90;;;;;;5045720;28;20453;-72
2022/04/01 07:54:40;;;;;;;15.27;8.50;;;3.30;99.90;;;;;;5029322;28;20190;-72
2022/04/01 07:57:07;;;;;;;10.03;7.57;;;3.30;99.90;;;;;;5028469;28;20606;-72
2022/04/01 07:59:34;;;;;;;11.75;8.18;;;3.60;99.90;;;;;;5043137;28;20434;-72
2022/04/01 08:02:00;;;;;;;10.45;7.20;;;3.50;99.90;;;;;;5027819;28;20257;-72
2022/04/01 08:04:27;;;;;;;9.70;7.28;;;3.30;99.90;;;;;;5027594;28;20186;-73
2022/04/01 08:06:53;;;;;;;8.93;7.28;;;3.30;99.90;;;;;;5027655;28;20186;-72
2022/04/01 08:09:19;;;;;;;12.07;7.70;;;3.40;99.90;;;;;;5027377;28;20221;-73
2022/04/01 08:11:45;;;;;;;9.75;7.15;;;3.30;99.90;;;;;;5027357;28;20196;-72
2022/04/01 08:14:10;;;;;;;9.90;7.20;;;3.40;99.90;;;;;;5027470;28;20557;-72
2022/04/01 08:16:36;;;;;;;8.90;6.60;;;3.40;99.90;;;;;;5027581;28;20184;-72
2022/04/01 08:19:03;;;;;;;9.00;6.60;;;3.40;99.90;;;;;;5042554;28;20401;-72
2022/04/01 08:21:30;;;;;;;9.90;7.75;;;3.30;99.90;;;;;;5042161;28;20190;-73
2022/04/01 08:23:57;;;;;;;9.95;7.65;;;3.40;99.90;;;;;;5027287;28;20192;-73
2022/04/01 08:26:23;;;;;;;9.07;6.43;;;3.30;99.90;;;;;;5042261;28;20192;-73
2022/04/01 08:28:49;;;;;;;10.38;7.40;;;3.30;99.90;;;;;;5042169;28;20224;-73
2022/04/01 08:31:15;;;;;;;14.40;8.93;;;3.20;99.90;;;;;;5042321;28;20187;-73
2022/04/01 08:33:41;;;;;;;10.30;7.57;;;3.20;99.90;;;;;;5027525;28;20998;-73
2022/04/01 08:36:07;;;;;;;14.00;9.07;;;3.20;99.90;;;;;;5042759;28;20213;-73
2022/04/01 08:38:33;;;;;;;11.90;8.50;;;3.10;99.90;;;;;;5043012;28;20532;-73
2022/04/01 08:40:59;;;;;;;14.07;8.93;;;3.20;99.90;;;;;;5027926;28;20267;-72
2022/04/01 08:43:28;;;;;;;17.67;8.02;;;3.20;99.90;;;;;;5027666;28;20437;-72
2022/04/01 08:45:55;;;;;;;11.18;8.60;;;3.20;99.90;;;;;;5042662;28;20199;-73
2022/04/01 08:48:21;;;;;;;14.32;9.68;;;3.30;99.90;;;;;;5025962;28;20226;-73
2022/04/01 08:50:46;;;;;;;11.63;8.75;;;3.40;99.90;;;;;;5042621;28;20668;-72
2022/04/01 08:53:12;;;;;;;12.10;8.43;;;3.20;99.90;;;;;;5042250;28;20268;-73
2022/04/01 08:55:38;;;;;;;9.10;7.47;;;3.20;99.90;;;;;;5045541;28;20191;-73
2022/04/01 08:58:04;;;;;;;10.27;8.43;;;3.20;99.90;;;;;;5030212;28;20187;-73
2022/04/01 09:00:30;;;;;;;12.33;8.60;;;3.20;99.90;;;;;;5030422;28;20428;-73
2022/04/01 09:03:04;;;;;;;10.45;8.52;;;3.20;99.90;;;;;;5030267;28;20445;-73
2022/04/01 09:05:30;;;;;;;11.27;8.35;;;3.20;99.90;;;;;;5030280;28;20719;-72
2022/04/01 09:08:07;;;;;;;13.70;9.97;;;3.10;99.90;;;;;;5030056;28;20209;-73
2022/04/01 09:10:50;;;;;;;10.98;8.20;;;3.10;99.90;;;;;;5044923;28;20736;-73
2022/04/01 09:13:16;;;;;;;10.80;7.97;;;3.10;99.90;;;;;;5029719;28;20197;-73
2022/04/01 09:15:43;;;;;;;12.53;8.20;;;3.10;99.90;;;;;;5029600;28;20178;-73
2022/04/01 09:18:09;;;;;;;14.05;9.27;;;3.10;99.90;;;;;;5029886;28;20423;-73
2022/04/01 09:20:48;;;;;;;10.07;8.13;;;3.20;99.90;;;;;;5028344;28;20280;-73
2022/04/01 09:23:24;;;;;;;11.95;8.30;;;3.10;99.90;;;;;;5029646;28;20581;-73
2022/04/01 09:25:51;;;;;;;12.10;9.35;;;3.10;99.90;;;;;;5028550;28;20194;-71
2022/04/01 09:28:25;;;;;;;12.75;9.35;;;3.10;99.90;;;;;;5028282;28;20230;-70
2022/04/01 09:31:01;;;;;;;13.68;9.70;;;3.00;99.90;;;;;;5029669;28;20174;-71
2022/04/01 09:33:50;;;;;;;16.10;10.30;;;3.10;99.90;;;;;;5044425;28;20615;-71
2022/04/01 09:36:29;;;;;;;11.85;9.00;;;3.10;99.90;;;;;;5026546;28;20193;-70
2022/04/01 09:39:07;;;;;;;27.25;14.82;;;3.10;99.90;;;;;;5044468;28;20741;-71
2022/04/01 09:41:41;;;;;;;14.15;9.98;;;3.20;99.90;;;;;;5029277;28;20734;-71
2022/04/01 09:44:08;;;;;;;16.05;11.25;;;3.10;99.90;;;;;;5029340;28;20185;-71
2022/04/01 09:46:34;;;;;;;11.93;8.65;;;3.20;99.90;;;;;;5029503;28;20552;-71
2022/04/01 09:49:00;;;;;;;10.48;7.30;;;3.20;99.90;;;;;;5029458;28;20214;-71
2022/04/01 09:51:31;;;;;;;12.60;9.43;;;3.20;99.90;;;;;;5044567;28;20271;-71
2022/04/01 09:54:02;;;;;;;12.27;8.50;;;3.20;99.90;;;;;;5027899;28;20631;-71
2022/04/01 09:56:44;;;;;;;10.57;8.05;;;3.20;99.90;;;;;;5044067;28;20190;-71
2022/04/01 09:59:14;;;;;;;11.27;8.57;;;3.20;99.90;;;;;;5029074;28;20195;-71
2022/04/01 10:01:43;;;;;;;15.43;8.02;;;3.20;99.90;;;;;;5029337;28;20196;-72
2022/04/01 10:04:10;;;;;;;10.20;7.60;;;3.30;99.90;;;;;;5028830;28;20189;-71
2022/04/01 10:06:37;;;;;;;14.75;9.10;;;3.30;99.90;;;;;;5043497;28;20482;-71
2022/04/01 10:09:08;;;;;;;9.52;7.55;;;3.40;99.90;;;;;;5028927;28;20702;-71
2022/04/01 10:11:36;;;;;;;11.60;7.60;;;3.30;99.90;;;;;;5029381;28;20271;-72
2022/04/01 10:14:11;;;;;;;10.85;9.15;;;3.30;99.90;;;;;;5045099;28;20534;-71
2022/04/01 10:16:41;;;;;;;9.43;7.38;;;3.40;99.90;;;;;;5028960;28;20652;-71
2022/04/01 10:19:12;;;;;;;8.50;7.60;;;3.30;99.90;;;;;;5028920;28;20589;-71
2022/04/01 10:21:40;;;;;;;11.87;8.07;;;3.40;99.90;;;;;;5028648;28;20561;-72
2022/04/01 10:24:36;;;;;;;11.05;8.40;;;3.50;99.90;;;;;;5026972;28;20496;-71
2022/04/01 10:27:13;;;;;;;8.48;6.22;;;3.40;99.90;;;;;;5028456;28;20244;-71
2022/04/01 10:29:39;;;;;;;9.00;7.38;;;3.40;99.90;;;;;;5028325;28;20220;-71
2022/04/01 10:32:39;;;;;;;8.40;6.75;;;3.40;99.90;;;;;;5043205;28;20229;-71
2022/04/01 10:35:07;;;;;;;8.67;7.00;;;3.40;99.90;;;;;;5026493;28;20198;-71
2022/04/01 10:37:34;;;;;;;6.93;6.20;;;3.30;99.90;;;;;;5028218;28;20417;-73
2022/04/01 10:40:07;;;;;;;8.27;7.17;;;3.20;99.90;;;;;;5028221;28;20180;-73
2022/04/01 10:42:36;;;;;;;10.52;7.03;;;3.30;99.90;;;;;;5043136;28;20450;-73
2022/04/01 10:45:08;;;;;;;7.22;6.20;;;3.30;99.90;;;;;;5043083;28;20229;-73
2022/04/01 10:53:33;;;;;;;8.93;6.10;;;3.20;99.90;;;;;;5040523;28;20256;-72
2022/04/01 10:56:21;;;;;;;9.30;6.50;;;3.30;99.90;;;;;;5042812;28;20567;-72
2022/04/01 10:59:11;;;;;;;7.15;5.70;;;3.30;99.90;;;;;;5027868;28;20203;-72
2022/04/01 11:01:49;;;;;;;5.70;5.10;;;3.30;99.90;;;;;;5027679;28;20182;-73
2022/04/01 11:04:17;;;;;;;6.70;4.68;;;3.40;99.90;;;;;;5027827;28;20237;-72
2022/04/01 11:06:55;;;;;;;7.25;4.75;;;3.40;99.90;;;;;;5042585;28;20283;-73
2022/04/01 11:09:38;;;;;;;4.40;3.83;;;3.40;99.90;;;;;;5027657;28;20215;-72
2022/04/01 11:12:19;;;;;;;7.03;4.22;;;3.40;99.90;;;;;;5027786;28;20194;-72
2022/04/01 11:14:54;;;;;;;10.13;5.85;;;3.30;99.90;;;;;;5027810;28;20178;-73
2022/04/01 11:17:51;;;;;;;4.35;3.95;;;3.30;99.90;;;;;;5027695;28;20264;-72
2022/04/01 11:20:21;;;;;;;5.95;4.13;;;3.30;99.90;;;;;;5027874;28;20196;-71
2022/04/01 11:22:52;;;;;;;7.32;4.97;;;3.20;99.90;;;;;;5027926;28;20605;-72
2022/04/01 11:25:32;;;;;;;3.70;3.40;;;3.20;99.90;;;;;;5027681;28;20186;-72
2022/04/01 11:28:11;;;;;;;5.63;4.30;;;3.10;99.90;;;;;;5027379;28;20475;-72
2022/04/01 11:30:56;;;;;;;3.80;3.50;;;3.20;99.90;;;;;;5027741;28;20175;-72
2022/04/01 11:33:22;;;;;;;4.07;3.75;;;3.30;99.90;;;;;;5028210;28;20589;-72
2022/04/01 11:35:53;;;;;;;3.60;3.30;;;3.20;99.90;;;;;;5028020;28;20190;-72
2022/04/01 11:38:25;;;;;;;3.60;3.40;;;3.10;99.90;;;;;;5043226;28;20417;-75
2022/04/01 11:40:56;;;;;;;3.53;3.22;;;3.20;99.90;;;;;;5043192;28;20426;-72
2022/04/01 11:43:23;;;;;;;4.53;4.13;;;3.20;99.90;;;;;;5028263;28;20207;-71
2022/04/01 11:45:57;;;;;;;4.40;4.00;;;3.10;99.90;;;;;;5043955;28;20424;-72
2022/04/01 11:48:32;;;;;;;4.60;4.18;;;3.20;99.90;;;;;;5031341;28;20216;-71
2022/04/01 11:51:09;;;;;;;4.57;4.20;;;3.30;99.90;;;;;;5031959;28;20687;-71
2022/04/01 11:53:41;;;;;;;4.35;3.95;;;3.20;99.90;;;;;;5050850;28;20215;-72
2022/04/01 11:56:10;;;;;;;3.90;3.60;;;3.30;99.90;;;;;;5050741;28;20186;-72
2022/04/01 11:58:55;;;;;;;4.10;3.80;;;3.20;99.90;;;;;;5049599;28;20421;-71
2022/04/01 12:01:23;;;;;;;5.25;4.20;;;3.20;99.90;;;;;;5066289;28;20190;-71
2022/04/01 12:03:49;;;;;;;6.40;4.15;;;3.30;99.90;;;;;;5051767;28;20206;-73
2022/04/01 12:09:04;;;;;;;5.90;5.30;;;3.10;99.90;;;;;;5027499;28;20467;-72
2022/04/01 12:11:37;;;;;;;4.60;4.20;;;3.00;99.90;;;;;;5025834;28;20290;-72
2022/04/01 12:14:03;;;;;;;4.60;3.97;;;3.00;99.90;;;;;;5027825;28;20186;-72
2022/04/01 12:16:29;;;;;;;3.50;3.20;;;3.10;99.90;;;;;;5028050;28;20185;-72
2022/04/01 12:18:57;;;;;;;4.00;3.70;;;3.00;99.90;;;;;;5043081;28;20199;-72
2022/04/01 12:21:24;;;;;;;3.97;3.20;;;3.00;99.90;;;;;;5027984;28;20206;-73
2022/04/01 12:23:51;;;;;;;3.10;2.90;;;3.10;99.90;;;;;;5027725;28;20196;-72
2022/04/01 12:26:21;;;;;;;2.78;2.60;;;3.10;99.90;;;;;;5027708;28;20562;-71
2022/04/01 12:28:50;;;;;;;2.58;2.47;;;3.20;99.90;;;;;;5044048;28;20223;-72
2022/04/01 12:31:21;;;;;;;3.65;2.90;;;3.20;99.90;;;;;;5046408;28;20225;-72
2022/04/01 12:33:49;;;;;;;2.47;2.28;;;3.20;99.90;;;;;;5028925;28;20789;-73
2022/04/01 12:36:16;;;;;;;3.88;3.50;;;3.20;99.90;;;;;;5030543;28;20270;-72
2022/04/01 12:38:43;;;;;;;2.85;2.70;;;3.30;99.90;;;;;;5030491;28;20606;-73
2022/04/01 12:41:17;;;;;;;3.28;3.03;;;3.40;99.90;;;;;;5028776;28;20654;-72
2022/04/01 12:43:47;;;;;;;2.90;2.60;;;3.30;99.90;;;;;;5030151;28;20216;-75
2022/04/01 12:46:32;;;;;;;3.25;3.00;;;3.40;99.90;;;;;;5032334;28;20427;-81
2022/04/01 12:49:14;;;;;;;2.47;2.28;;;3.40;99.90;;;;;;5031627;28;20291;-79
2022/04/01 12:51:52;;;;;;;2.00;1.90;;;3.40;99.90;;;;;;5045625;28;20668;-74
2022/04/01 12:54:37;;;;;;;3.10;2.90;;;3.40;99.90;;;;;;5030305;28;20182;-79
2022/04/01 12:57:05;;;;;;;6.33;2.70;;;3.40;99.90;;;;;;5030520;28;20431;-80
2022/04/01 12:59:39;;;;;;;3.00;2.80;;;3.50;99.90;;;;;;5031988;28;20432;-80
2022/04/01 13:02:23;;;;;;;5.23;3.67;;;3.60;99.90;;;;;;5028876;28;20214;-76
2022/04/01 13:04:50;;;;;;;3.22;3.03;;;3.50;99.90;;;;;;5029859;28;20453;-77
2022/04/01 13:07:21;;;;;;;3.60;3.22;;;3.50;99.90;;;;;;5045724;28;20608;-77
2022/04/01 13:09:55;;;;;;;2.37;2.17;;;3.50;99.90;;;;;;5044425;28;20733;-75
2022/04/01 13:12:24;;;;;;;4.60;2.92;;;3.50;99.90;;;;;;5028234;28;20442;-75
2022/04/01 13:15:03;;;;;;;3.55;3.25;;;3.30;99.90;;;;;;5029746;28;20278;-75
2022/04/01 13:17:38;;;;;;;2.83;2.63;;;3.40;99.90;;;;;;5029826;28;20296;-75